Time;durP1;ratioP1;P1;durP2;ratioP2;P2;SDS_P1;SDS_P2;PMS_P1;PMS_P2;Temp;Humidity;BMP_temperature;BMP_pressure;BME280_temperature;BME280_humidity;BME280_pressure;Samples;Min_cycle;Max_cycle;Signal;HPM_P1;HPM_P2
2023/02/09 00:01:15;;;;;;;21.90;13.20;;;-0.60;35.20;;;;;;4999615;28;20337;-78
2023/02/09 00:03:44;;;;;;;16.90;11.02;;;-0.60;38.30;;;;;;4995533;28;20203;-78
2023/02/09 00:06:15;;;;;;;23.75;15.30;;;-0.50;38.40;;;;;;4995060;28;20438;-79
2023/02/09 00:08:44;;;;;;;15.23;11.65;;;-0.60;36.70;;;;;;5000467;28;20662;-77
2023/02/09 00:11:18;;;;;;;17.45;11.25;;;-0.60;40.70;;;;;;4994671;28;20215;-77
2023/02/09 00:13:45;;;;;;;22.33;12.68;;;-0.60;43.90;;;;;;4999783;28;20194;-79
2023/02/09 00:16:14;;;;;;;17.77;11.88;;;-0.70;45.00;;;;;;4995665;28;20230;-78
2023/02/09 00:18:42;;;;;;;16.30;11.02;;;-0.60;45.60;;;;;;4994938;28;20208;-78
2023/02/09 00:21:11;;;;;;;19.55;12.00;;;-0.60;43.80;;;;;;4997684;28;20246;-78
2023/02/09 00:23:41;;;;;;;14.10;10.88;;;-0.70;44.90;;;;;;4996451;28;20206;-78
2023/02/09 00:26:11;;;;;;;16.77;12.35;;;-0.60;46.70;;;;;;4995203;28;20569;-77
2023/02/09 00:28:39;;;;;;;18.52;12.68;;;-0.60;47.50;;;;;;4996886;28;20202;-78
2023/02/09 00:31:08;;;;;;;20.90;13.23;;;-0.60;51.40;;;;;;5003416;28;20277;-78
2023/02/09 00:33:37;;;;;;;18.52;11.63;;;-0.50;53.70;;;;;;4998167;28;20265;-78
2023/02/09 00:36:06;;;;;;;20.80;13.73;;;-0.50;52.70;;;;;;4997992;28;20221;-78
2023/02/09 00:38:34;;;;;;;18.08;13.02;;;-0.50;56.40;;;;;;4996349;28;21012;-79
2023/02/09 00:41:03;;;;;;;18.70;13.40;;;-0.50;56.20;;;;;;4999654;28;20222;-79
2023/02/09 00:43:35;;;;;;;20.52;13.23;;;-0.40;56.90;;;;;;4995272;28;20265;-78
2023/02/09 00:46:03;;;;;;;18.52;12.18;;;-0.40;56.50;;;;;;4996767;28;20248;-75
2023/02/09 00:48:32;;;;;;;17.67;12.80;;;-0.40;55.30;;;;;;4996346;28;20210;-78
2023/02/09 00:51:00;;;;;;;15.68;12.27;;;-0.40;51.20;;;;;;4994561;28;20313;-77
2023/02/09 00:53:28;;;;;;;17.45;12.77;;;-0.40;52.70;;;;;;4996376;28;20222;-78
2023/02/09 00:55:58;;;;;;;19.20;11.50;;;-0.50;56.10;;;;;;4996615;28;20238;-79
2023/02/09 00:58:26;;;;;;;18.50;12.55;;;-0.40;58.40;;;;;;4998497;28;20219;-79
2023/02/09 01:00:56;;;;;;;17.13;12.20;;;-0.40;58.00;;;;;;4995960;28;20219;-79
2023/02/09 01:03:24;;;;;;;21.23;14.07;;;-0.30;56.80;;;;;;4996605;28;20213;-78
2023/02/09 01:05:52;;;;;;;18.33;12.80;;;-0.30;54.00;;;;;;5003734;28;20210;-79
2023/02/09 01:08:20;;;;;;;20.65;12.77;;;-0.20;55.90;;;;;;5000623;28;20230;-78
2023/02/09 01:10:48;;;;;;;20.90;12.93;;;-0.10;52.10;;;;;;4997087;28;20632;-78
2023/02/09 01:13:16;;;;;;;21.15;12.73;;;-0.20;49.50;;;;;;4996031;28;20287;-78
2023/02/09 01:15:44;;;;;;;21.67;13.00;;;-0.20;52.20;;;;;;4996183;28;20195;-79
2023/02/09 01:18:14;;;;;;;19.77;12.75;;;-0.20;53.60;;;;;;4998482;28;20223;-78
2023/02/09 01:20:42;;;;;;;16.40;12.35;;;-0.20;55.10;;;;;;4998177;28;20214;-80
2023/02/09 01:23:10;;;;;;;18.33;12.70;;;-0.20;54.80;;;;;;5001082;28;20190;-80
2023/02/09 01:25:40;;;;;;;17.50;12.73;;;-0.10;54.40;;;;;;4999403;28;20206;-80
2023/02/09 01:28:08;;;;;;;19.15;12.27;;;0.10;52.30;;;;;;4999674;28;20242;-79
2023/02/09 01:30:36;;;;;;;23.58;15.00;;;-0.10;49.70;;;;;;5002365;28;20218;-78
2023/02/09 01:33:04;;;;;;;20.15;12.90;;;-0.20;49.30;;;;;;4995596;28;20197;-80
2023/02/09 01:35:34;;;;;;;18.88;12.77;;;-0.20;53.10;;;;;;4995335;28;20230;-79
2023/02/09 01:38:02;;;;;;;18.58;12.15;;;-0.10;54.80;;;;;;4998522;28;20223;-77
2023/02/09 01:40:30;;;;;;;17.17;12.73;;;-0.10;54.60;;;;;;4998042;28;20234;-77
2023/02/09 01:42:58;;;;;;;21.30;14.52;;;0.10;52.80;;;;;;4994963;28;20285;-78
2023/02/09 01:45:33;;;;;;;18.90;14.23;;;0.00;52.40;;;;;;4994559;28;20202;-77
2023/02/09 01:48:03;;;;;;;25.23;12.85;;;0.10;53.20;;;;;;4995220;28;20819;-79
2023/02/09 01:50:39;;;;;;;17.58;11.57;;;0.10;50.30;;;;;;4997506;28;20223;-78
2023/02/09 01:53:08;;;;;;;17.40;12.48;;;-0.10;42.00;;;;;;4993659;28;20210;-78
2023/02/09 01:55:40;;;;;;;18.42;12.65;;;-0.20;47.80;;;;;;4996391;28;20233;-78
2023/02/09 01:58:12;;;;;;;19.80;12.18;;;-0.20;46.70;;;;;;4996458;28;20218;-78
2023/02/09 02:00:41;;;;;;;19.00;12.00;;;-0.50;43.20;;;;;;4993377;28;20320;-78
2023/02/09 02:03:15;;;;;;;21.10;13.98;;;-0.70;46.00;;;;;;4989959;28;20210;-79
2023/02/09 02:05:48;;;;;;;19.20;12.35;;;-0.70;56.00;;;;;;4997554;28;21023;-78
2023/02/09 02:08:21;;;;;;;15.48;11.50;;;-0.60;58.90;;;;;;4993421;28;20206;-79
2023/02/09 02:10:51;;;;;;;19.27;11.55;;;-0.80;55.40;;;;;;4997711;28;20333;-77
2023/02/09 02:13:20;;;;;;;17.92;12.85;;;-0.70;60.00;;;;;;4994799;28;20299;-79
2023/02/09 02:15:56;;;;;;;16.38;12.32;;;-0.70;61.10;;;;;;5005558;28;20194;-78
2023/02/09 02:18:42;;;;;;;21.33;12.70;;;-0.90;59.90;;;;;;5003555;28;20225;-78
2023/02/09 02:21:55;;;;;;;19.48;13.88;;;-1.00;59.10;;;;;;5018046;28;20717;-77
2023/02/09 02:24:59;;;;;;;19.17;12.93;;;-0.90;68.90;;;;;;5013846;28;20203;-78
2023/02/09 02:27:32;;;;;;;20.55;12.68;;;-0.90;74.20;;;;;;5002489;28;20256;-77
2023/02/09 02:30:14;;;;;;;21.23;13.63;;;-0.80;81.50;;;;;;5001106;28;20317;-77
2023/02/09 02:32:53;;;;;;;20.25;12.60;;;-0.60;78.30;;;;;;5003660;28;20202;-78
2023/02/09 02:35:33;;;;;;;17.73;12.75;;;-0.40;92.60;;;;;;5004900;28;20243;-77
2023/02/09 02:38:10;;;;;;;19.25;12.77;;;-0.40;67.90;;;;;;5003868;28;20245;-78
2023/02/09 02:40:49;;;;;;;17.83;11.98;;;-0.40;67.60;;;;;;5005205;28;20292;-78
2023/02/09 02:43:24;;;;;;;20.48;14.75;;;-0.50;68.80;;;;;;5002388;28;20194;-78
2023/02/09 02:46:00;;;;;;;20.00;13.25;;;-0.60;75.10;;;;;;5003563;28;20212;-77
2023/02/09 02:48:37;;;;;;;24.35;15.90;;;-0.50;76.70;;;;;;5005088;28;20194;-78
2023/02/09 02:51:09;;;;;;;20.20;13.80;;;-0.50;74.80;;;;;;5009081;28;20217;-78
2023/02/09 02:53:41;;;;;;;20.88;13.38;;;-0.60;79.60;;;;;;5006039;28;20254;-79
2023/02/09 02:56:14;;;;;;;18.13;12.98;;;-0.40;89.40;;;;;;5004366;28;20249;-78
2023/02/09 02:58:46;;;;;;;17.88;12.43;;;-0.40;84.20;;;;;;5005451;28;20281;-77
2023/02/09 03:01:19;;;;;;;16.98;12.52;;;-0.60;81.30;;;;;;5003322;28;20223;-77
2023/02/09 03:03:50;;;;;;;17.98;12.95;;;-0.70;72.00;;;;;;5003947;28;20203;-78
2023/02/09 03:06:18;;;;;;;19.27;14.05;;;-0.80;69.50;;;;;;5001166;28;20198;-79
2023/02/09 03:08:48;;;;;;;17.42;13.30;;;-1.10;72.20;;;;;;5004502;28;20273;-78
2023/02/09 03:11:18;;;;;;;20.15;12.85;;;-1.10;77.10;;;;;;5006804;28;20215;-78
2023/02/09 03:13:59;;;;;;;20.40;13.20;;;-1.20;81.30;;;;;;5007981;28;20293;-78
2023/02/09 03:16:36;;;;;;;19.90;12.57;;;-1.20;77.10;;;;;;5004879;28;20218;-79
2023/02/09 03:19:35;;;;;;;18.70;12.27;;;-1.30;83.30;;;;;;4999111;28;20195;-78
2023/02/09 03:22:07;;;;;;;22.00;13.15;;;-1.50;86.30;;;;;;5003852;28;20225;-79
2023/02/09 03:24:40;;;;;;;22.23;13.88;;;-1.40;91.10;;;;;;5000784;28;20191;-77
2023/02/09 03:27:16;;;;;;;22.27;12.82;;;-1.40;91.30;;;;;;5001082;28;20195;-78
2023/02/09 03:29:47;;;;;;;19.55;13.00;;;-1.30;99.90;;;;;;4999185;28;20186;-78
2023/02/09 03:32:16;;;;;;;22.42;14.90;;;-1.30;99.90;;;;;;4999439;28;20638;-78
2023/02/09 03:34:45;;;;;;;19.58;13.55;;;-1.30;99.90;;;;;;4999808;28;20687;-78
2023/02/09 03:37:14;;;;;;;19.55;12.40;;;-1.40;99.90;;;;;;4994925;28;20214;-78
2023/02/09 03:39:42;;;;;;;20.17;12.52;;;-1.50;99.90;;;;;;5000377;28;20297;-79
2023/02/09 03:42:10;;;;;;;20.10;12.25;;;-1.40;99.90;;;;;;4998944;28;20273;-78
2023/02/09 03:44:38;;;;;;;20.45;14.20;;;-1.50;99.90;;;;;;4995297;28;20309;-79
2023/02/09 03:47:08;;;;;;;19.90;12.48;;;-1.50;97.10;;;;;;4994051;28;20797;-77
2023/02/09 03:49:39;;;;;;;18.63;12.90;;;-1.40;99.90;;;;;;4994753;28;20658;-77
2023/02/09 03:52:11;;;;;;;16.67;12.27;;;-1.30;96.80;;;;;;4997951;28;20218;-78
2023/02/09 03:54:40;;;;;;;22.90;13.20;;;-1.40;97.20;;;;;;4998446;28;20202;-78
2023/02/09 03:57:10;;;;;;;18.85;13.05;;;-1.40;95.90;;;;;;4998701;28;20228;-77
2023/02/09 03:59:38;;;;;;;17.55;12.73;;;-1.40;98.30;;;;;;4999654;28;20218;-77
2023/02/09 04:02:08;;;;;;;19.50;12.57;;;-1.40;97.80;;;;;;4996211;28;20838;-78
2023/02/09 04:04:37;;;;;;;18.45;12.25;;;-1.30;99.90;;;;;;5000746;28;20202;-79
2023/02/09 04:07:05;;;;;;;17.25;12.32;;;-1.50;99.10;;;;;;4996875;28;20204;-79
2023/02/09 04:09:36;;;;;;;21.40;14.48;;;-1.60;99.90;;;;;;5001167;28;20248;-77
2023/02/09 04:12:04;;;;;;;24.80;14.85;;;-1.70;99.90;;;;;;5001622;28;20246;-78
2023/02/09 04:14:33;;;;;;;22.23;13.77;;;-1.70;99.90;;;;;;4996417;28;20266;-78
2023/02/09 04:17:01;;;;;;;23.50;13.98;;;-1.60;99.90;;;;;;4995667;28;20199;-78
2023/02/09 04:19:29;;;;;;;25.17;14.73;;;-1.70;99.90;;;;;;4998514;28;20223;-77
2023/02/09 04:21:57;;;;;;;22.05;13.07;;;-1.70;99.90;;;;;;5000548;28;20273;-78
2023/02/09 04:24:25;;;;;;;24.48;14.93;;;-1.90;99.90;;;;;;4996375;28;20257;-78
2023/02/09 04:26:54;;;;;;;23.10;14.60;;;-1.70;99.90;;;;;;4992927;28;20776;-77
2023/02/09 04:29:22;;;;;;;19.42;13.93;;;-1.60;99.90;;;;;;4999240;28;20882;-77
2023/02/09 04:31:51;;;;;;;20.83;14.43;;;-1.60;99.90;;;;;;5000061;28;20218;-78
2023/02/09 04:34:20;;;;;;;21.98;15.20;;;-1.40;99.90;;;;;;4996409;28;20211;-78
2023/02/09 04:36:48;;;;;;;24.25;16.33;;;-1.20;99.90;;;;;;4997328;28;20225;-78
2023/02/09 04:39:16;;;;;;;22.67;14.68;;;-1.30;99.90;;;;;;4999796;28;20251;-78
2023/02/09 04:41:44;;;;;;;27.02;15.82;;;-1.20;99.90;;;;;;4999675;28;21012;-78
2023/02/09 04:44:13;;;;;;;22.45;14.65;;;-1.30;99.90;;;;;;5000388;28;20666;-78
2023/02/09 04:46:41;;;;;;;28.42;16.65;;;-1.40;99.90;;;;;;4996732;28;20205;-77
2023/02/09 04:49:12;;;;;;;24.73;15.70;;;-1.60;99.90;;;;;;4998008;28;20202;-77
2023/02/09 04:51:40;;;;;;;22.73;16.77;;;-1.60;99.90;;;;;;4993650;28;20218;-77
2023/02/09 04:54:09;;;;;;;22.77;14.40;;;-1.50;99.90;;;;;;4999084;28;20207;-77
2023/02/09 04:56:39;;;;;;;21.35;15.30;;;-1.60;99.90;;;;;;4997148;28;20198;-77
2023/02/09 05:01:55;;;;;;;21.33;14.55;;;-1.60;99.90;;;;;;4992993;28;20218;-75
2023/02/09 05:04:23;;;;;;;21.88;13.65;;;-1.80;99.90;;;;;;4995107;28;20741;-78
2023/02/09 05:06:51;;;;;;;25.17;16.60;;;-1.70;99.90;;;;;;4995427;28;20205;-75
2023/02/09 05:09:20;;;;;;;25.70;16.38;;;-1.70;99.90;;;;;;4996817;28;20210;-77
2023/02/09 05:11:48;;;;;;;26.10;16.75;;;-1.50;99.90;;;;;;4995813;28;20223;-77
2023/02/09 05:14:16;;;;;;;24.55;15.95;;;-1.50;99.90;;;;;;4998781;28;20563;-77
2023/02/09 05:16:44;;;;;;;23.55;15.77;;;-1.30;99.90;;;;;;5000043;28;20285;-78
2023/02/09 05:19:13;;;;;;;19.27;15.32;;;-1.40;99.90;;;;;;4999578;28;20710;-77
2023/02/09 05:21:41;;;;;;;23.25;16.95;;;-1.70;99.90;;;;;;4996504;28;20616;-79
2023/02/09 05:24:10;;;;;;;26.67;20.27;;;-1.70;99.90;;;;;;4998381;28;20448;-78
2023/02/09 05:26:38;;;;;;;23.17;16.38;;;-1.80;99.90;;;;;;5001314;28;20202;-77
2023/02/09 05:29:06;;;;;;;26.10;17.65;;;-1.50;99.90;;;;;;4995955;28;20214;-77
2023/02/09 05:31:34;;;;;;;26.95;17.50;;;-1.50;99.90;;;;;;4996463;28;20241;-78
2023/02/09 05:34:02;;;;;;;31.05;18.35;;;-1.50;99.90;;;;;;5001963;28;20847;-79
2023/02/09 05:36:32;;;;;;;28.27;18.05;;;-1.30;99.90;;;;;;5000730;28;20257;-79
2023/02/09 05:39:00;;;;;;;27.00;17.30;;;-1.40;99.90;;;;;;5001097;28;20675;-79
2023/02/09 05:44:13;;;;;;;22.50;15.40;;;-1.10;99.90;;;;;;4997028;28;21101;-77
2023/02/09 05:46:41;;;;;;;26.05;17.25;;;-1.10;99.90;;;;;;4995222;28;20199;-76
2023/02/09 05:49:10;;;;;;;22.00;15.90;;;-1.10;99.90;;;;;;4994405;28;20202;-77
2023/02/09 05:51:39;;;;;;;30.00;18.60;;;-1.00;99.90;;;;;;4989068;28;20309;-77
2023/02/09 05:54:07;;;;;;;26.20;16.30;;;-1.00;99.90;;;;;;4996433;28;20672;-76
2023/02/09 05:56:36;;;;;;;26.50;17.10;;;-1.00;99.90;;;;;;4994417;28;20231;-76
2023/02/09 05:59:05;;;;;;;22.88;16.27;;;-1.00;99.90;;;;;;4989974;28;20214;-77
2023/02/09 06:01:33;;;;;;;24.88;16.60;;;-1.00;99.90;;;;;;4992449;28;20300;-77
2023/02/09 06:04:01;;;;;;;26.10;18.10;;;-1.30;99.90;;;;;;4995056;28;20342;-76
2023/02/09 06:06:29;;;;;;;26.95;17.52;;;-1.10;99.90;;;;;;4994396;28;20207;-77
2023/02/09 06:08:59;;;;;;;27.85;19.17;;;-1.00;99.90;;;;;;4996502;28;20200;-77
2023/02/09 06:11:27;;;;;;;29.17;19.20;;;-1.00;99.90;;;;;;4993820;28;20705;-78
2023/02/09 06:13:55;;;;;;;32.88;20.67;;;-1.20;99.90;;;;;;4994234;28;20203;-77
2023/02/09 06:16:23;;;;;;;29.58;18.88;;;-1.10;99.90;;;;;;4989612;28;20210;-77
2023/02/09 06:18:51;;;;;;;30.25;19.10;;;-1.20;99.90;;;;;;4992867;28;20226;-75
2023/02/09 06:21:20;;;;;;;29.05;18.00;;;-1.20;99.90;;;;;;4989829;28;20226;-78
2023/02/09 06:23:48;;;;;;;26.02;17.77;;;-1.30;99.90;;;;;;4991836;28;20210;-77
2023/02/09 06:26:18;;;;;;;29.73;18.30;;;-1.40;99.90;;;;;;4986996;28;20314;-77
2023/02/09 06:28:47;;;;;;;26.75;18.95;;;-1.10;99.90;;;;;;4989188;28;20225;-77
2023/02/09 06:31:15;;;;;;;42.67;17.67;;;-1.20;99.90;;;;;;4988200;28;20232;-77
2023/02/09 06:33:43;;;;;;;26.92;19.20;;;-1.30;99.90;;;;;;4995678;28;20461;-76
2023/02/09 06:36:11;;;;;;;29.42;19.10;;;-1.30;99.90;;;;;;4993652;28;20206;-77
2023/02/09 06:38:39;;;;;;;34.33;20.00;;;-1.40;99.90;;;;;;4989679;28;20660;-77
2023/02/09 06:41:08;;;;;;;24.42;16.17;;;-1.50;99.90;;;;;;4989180;28;20254;-77
2023/02/09 06:43:37;;;;;;;25.48;15.68;;;-1.70;99.90;;;;;;4989464;28;20246;-77
2023/02/09 06:46:07;;;;;;;29.45;17.75;;;-1.60;99.90;;;;;;4995631;28;20279;-77
2023/02/09 06:48:35;;;;;;;26.17;16.73;;;-1.70;99.90;;;;;;4996168;28;20285;-78
2023/02/09 06:51:08;;;;;;;28.85;18.83;;;-1.60;99.90;;;;;;4991097;28;20861;-78
2023/02/09 06:53:37;;;;;;;26.33;18.20;;;-1.50;99.90;;;;;;4991072;28;20210;-77
2023/02/09 06:56:06;;;;;;;27.70;17.60;;;-1.40;99.90;;;;;;4991856;28;20880;-77
2023/02/09 06:58:36;;;;;;;23.48;15.93;;;-1.20;99.90;;;;;;4997380;28;20206;-76
2023/02/09 07:01:06;;;;;;;27.17;17.77;;;-1.30;99.90;;;;;;4994380;28;20304;-77
2023/02/09 07:03:35;;;;;;;27.58;17.95;;;-1.30;99.90;;;;;;5000080;28;20670;-77
2023/02/09 07:06:04;;;;;;;28.30;17.75;;;-1.20;99.90;;;;;;4999509;28;20690;-77
2023/02/09 07:08:33;;;;;;;23.92;17.08;;;-1.20;99.90;;;;;;5002861;28;20203;-78
2023/02/09 07:11:02;;;;;;;24.65;17.50;;;-1.30;99.90;;;;;;4997749;28;20222;-76
2023/02/09 07:13:30;;;;;;;26.20;18.35;;;-1.20;99.90;;;;;;4999006;28;20195;-77
2023/02/09 07:16:00;;;;;;;26.13;18.05;;;-1.00;99.90;;;;;;4999358;28;20203;-77
2023/02/09 07:18:30;;;;;;;28.35;17.77;;;-0.90;99.90;;;;;;4999057;28;20294;-77
2023/02/09 07:21:00;;;;;;;32.22;19.15;;;-0.90;99.90;;;;;;5002014;28;20221;-77
2023/02/09 07:23:29;;;;;;;28.50;18.77;;;-0.80;99.90;;;;;;5002053;28;20207;-76
2023/02/09 07:26:01;;;;;;;27.95;18.27;;;-0.80;99.90;;;;;;4999159;28;20202;-77
2023/02/09 07:28:30;;;;;;;30.02;19.63;;;-0.80;99.90;;;;;;4998527;28;20214;-77
2023/02/09 07:31:04;;;;;;;34.45;18.30;;;-0.80;99.90;;;;;;5000967;28;20219;-77
2023/02/09 07:33:34;;;;;;;27.85;19.02;;;-0.80;99.90;;;;;;4996301;28;20199;-77
2023/02/09 07:36:04;;;;;;;28.92;18.58;;;-0.70;99.90;;;;;;4998857;28;20233;-77
2023/02/09 07:38:33;;;;;;;26.98;17.73;;;-0.70;99.90;;;;;;5000727;28;20537;-77
2023/02/09 07:41:03;;;;;;;31.05;19.42;;;-0.70;99.90;;;;;;4998188;28;20253;-77
2023/02/09 07:43:32;;;;;;;30.55;20.02;;;-0.60;99.90;;;;;;4998161;28;20203;-77
2023/02/09 07:46:01;;;;;;;29.75;17.48;;;-0.60;99.90;;;;;;4997414;28;20281;-77
2023/02/09 07:48:30;;;;;;;28.30;18.50;;;-0.50;99.90;;;;;;4999156;28;20206;-77
2023/02/09 07:51:00;;;;;;;25.88;18.58;;;-0.40;99.90;;;;;;5000125;28;20300;-77
2023/02/09 07:53:29;;;;;;;26.95;18.52;;;-0.20;99.90;;;;;;4998689;28;20234;-78
2023/02/09 07:55:57;;;;;;;27.55;18.33;;;-0.10;99.90;;;;;;4986653;28;20210;-78
2023/02/09 07:58:25;;;;;;;30.60;19.70;;;0.00;99.90;;;;;;4990697;28;20237;-80
2023/02/09 08:00:55;;;;;;;28.55;19.10;;;0.10;99.90;;;;;;4985653;28;20233;-78
2023/02/09 08:03:24;;;;;;;32.85;19.67;;;0.20;99.90;;;;;;4995270;28;20799;-79
2023/02/09 08:05:58;;;;;;;28.50;19.83;;;0.30;99.90;;;;;;4994401;28;20213;-76
2023/02/09 08:08:28;;;;;;;30.27;21.75;;;0.30;99.90;;;;;;4995477;28;20198;-79
2023/02/09 08:10:58;;;;;;;28.98;20.98;;;0.40;99.90;;;;;;4994116;28;20222;-76
2023/02/09 08:13:31;;;;;;;27.80;19.25;;;0.50;99.90;;;;;;4999728;28;20212;-77
2023/02/09 08:16:03;;;;;;;29.52;18.85;;;0.70;99.90;;;;;;4994266;28;20210;-78
2023/02/09 08:18:38;;;;;;;29.88;18.85;;;0.80;99.90;;;;;;4995592;28;20191;-78
2023/02/09 08:21:10;;;;;;;29.00;18.85;;;0.90;99.90;;;;;;4996217;28;20253;-78
2023/02/09 08:23:42;;;;;;;28.85;19.75;;;0.90;99.90;;;;;;4995483;28;20206;-79
2023/02/09 08:26:13;;;;;;;29.20;18.85;;;1.30;99.90;;;;;;4996580;28;20209;-78
2023/02/09 08:28:43;;;;;;;29.35;19.42;;;1.50;99.90;;;;;;4993322;28;20264;-78
2023/02/09 08:31:12;;;;;;;32.85;20.90;;;1.90;99.90;;;;;;4993604;28;20226;-78
2023/02/09 08:33:40;;;;;;;26.90;18.30;;;2.10;99.90;;;;;;4993856;28;20204;-76
2023/02/09 08:36:09;;;;;;;29.13;19.83;;;2.40;99.90;;;;;;4995722;28;20287;-77
2023/02/09 08:38:38;;;;;;;22.65;17.65;;;2.60;99.90;;;;;;4995024;28;20199;-78
2023/02/09 08:41:09;;;;;;;28.27;18.50;;;2.80;99.90;;;;;;4996700;28;20228;-77
2023/02/09 08:43:38;;;;;;;30.83;20.20;;;3.20;99.90;;;;;;4994241;28;20214;-77
2023/02/09 08:46:08;;;;;;;26.30;18.42;;;3.70;96.60;;;;;;4999417;28;20209;-77
2023/02/09 08:48:38;;;;;;;25.55;18.10;;;4.20;93.80;;;;;;4998031;28;20214;-77
2023/02/09 08:51:07;;;;;;;26.15;18.50;;;4.50;90.00;;;;;;4992765;28;20219;-78
2023/02/09 08:53:35;;;;;;;29.02;18.45;;;4.90;84.80;;;;;;4987821;28;20293;-78
2023/02/09 08:56:04;;;;;;;25.83;17.35;;;5.10;75.80;;;;;;4995928;28;20205;-78
2023/02/09 08:58:34;;;;;;;25.90;18.98;;;5.20;70.60;;;;;;4992521;28;20595;-77
2023/02/09 09:01:04;;;;;;;26.20;18.75;;;5.40;65.50;;;;;;4995796;28;20309;-78
2023/02/09 09:03:32;;;;;;;22.75;17.00;;;5.20;57.20;;;;;;4993480;28;20250;-77
2023/02/09 09:06:02;;;;;;;25.60;17.55;;;5.30;54.80;;;;;;4996931;28;20203;-77
2023/02/09 09:08:31;;;;;;;27.35;17.73;;;5.30;52.70;;;;;;4995887;28;20268;-78
2023/02/09 09:11:00;;;;;;;27.13;17.95;;;5.30;51.30;;;;;;5000278;28;20321;-79
2023/02/09 09:13:28;;;;;;;28.70;19.20;;;5.50;51.90;;;;;;5001430;28;20213;-79
2023/02/09 09:15:58;;;;;;;25.30;17.80;;;5.30;46.50;;;;;;5000805;28;20824;-78
2023/02/09 09:18:26;;;;;;;24.73;18.25;;;4.90;44.70;;;;;;5000695;28;20206;-78
2023/02/09 09:20:56;;;;;;;26.05;17.60;;;4.80;42.90;;;;;;5000032;28;20226;-78
2023/02/09 09:23:24;;;;;;;24.88;17.08;;;5.20;48.50;;;;;;4999871;28;20222;-78
2023/02/09 09:25:52;;;;;;;25.25;17.52;;;5.50;47.70;;;;;;5000928;28;20202;-77
2023/02/09 09:28:21;;;;;;;23.88;16.80;;;5.50;45.20;;;;;;5005723;28;20218;-80
2023/02/09 09:30:49;;;;;;;24.10;17.17;;;5.60;49.30;;;;;;5009507;28;20218;-77
2023/02/09 09:33:18;;;;;;;26.37;18.10;;;5.40;46.30;;;;;;5008596;28;20202;-77
2023/02/09 09:35:47;;;;;;;23.00;16.85;;;5.50;45.50;;;;;;5009798;28;20469;-78
2023/02/09 09:38:15;;;;;;;29.27;19.30;;;6.00;50.40;;;;;;5011422;28;20207;-77
2023/02/09 09:40:46;;;;;;;25.20;17.87;;;6.40;48.50;;;;;;5011134;28;20524;-77
2023/02/09 09:43:21;;;;;;;31.40;18.40;;;6.70;48.80;;;;;;5004524;28;21142;-78
2023/02/09 09:45:50;;;;;;;24.40;18.40;;;7.70;52.40;;;;;;5001069;28;20491;-79
2023/02/09 09:48:24;;;;;;;22.80;16.83;;;8.20;53.00;;;;;;5000353;28;20765;-78
2023/02/09 09:50:54;;;;;;;24.90;17.40;;;8.50;52.10;;;;;;4998819;28;20477;-77
2023/02/09 09:53:31;;;;;;;27.03;18.97;;;8.70;48.90;;;;;;4989808;28;20466;-79
2023/02/09 09:56:04;;;;;;;24.90;17.03;;;9.00;50.70;;;;;;4987799;28;20451;-78
2023/02/09 09:58:34;;;;;;;21.60;19.10;;;9.20;48.20;;;;;;4990463;28;20558;-79
2023/02/09 10:01:02;;;;;;;26.73;18.33;;;9.50;50.90;;;;;;4983527;28;20478;-79
2023/02/09 10:03:32;;;;;;;24.40;17.37;;;9.60;47.70;;;;;;4995448;28;20467;-79
2023/02/09 10:06:03;;;;;;;24.00;16.17;;;9.60;46.90;;;;;;4999796;28;20546;-78
2023/02/09 10:08:35;;;;;;;23.60;16.27;;;9.60;44.50;;;;;;5001062;28;21066;-78
2023/02/09 10:11:05;;;;;;;19.43;15.53;;;9.70;44.40;;;;;;4993268;28;20486;-79
2023/02/09 10:13:36;;;;;;;24.40;17.00;;;9.80;43.70;;;;;;4984829;28;20453;-80
2023/02/09 10:16:14;;;;;;;28.43;17.77;;;10.10;44.20;;;;;;4988259;28;20459;-78
2023/02/09 10:18:44;;;;;;;25.80;17.20;;;10.20;43.50;;;;;;5006567;28;20530;-79
2023/02/09 10:21:14;;;;;;;25.40;17.17;;;10.30;43.80;;;;;;4988176;28;20512;-78
2023/02/09 10:23:45;;;;;;;22.00;15.40;;;10.60;45.20;;;;;;4989100;28;20516;-79
2023/02/09 10:26:20;;;;;;;26.87;19.30;;;11.00;47.80;;;;;;4993515;28;21242;-80
2023/02/09 10:28:51;;;;;;;22.77;16.03;;;11.10;48.00;;;;;;5004864;28;20502;-79
2023/02/09 10:31:23;;;;;;;21.53;15.70;;;11.30;46.80;;;;;;4990538;28;20540;-79
2023/02/09 10:33:57;;;;;;;21.80;16.27;;;11.60;49.30;;;;;;4986340;28;20572;-79
2023/02/09 10:36:30;;;;;;;23.17;16.77;;;12.10;52.90;;;;;;4989917;28;20499;-79
2023/02/09 10:39:15;;;;;;;23.40;16.13;;;12.30;53.20;;;;;;4990763;28;20483;-79
2023/02/09 10:41:45;;;;;;;21.17;15.90;;;12.30;49.10;;;;;;4989938;28;20476;-79
2023/02/09 10:44:18;;;;;;;21.33;16.53;;;12.80;55.10;;;;;;4986977;28;20492;-80
2023/02/09 10:46:47;;;;;;;20.00;15.57;;;13.40;58.70;;;;;;4995086;28;20471;-80
2023/02/09 10:49:35;;;;;;;22.43;14.57;;;13.70;61.30;;;;;;4990954;28;20476;-78
2023/02/09 10:52:07;;;;;;;22.47;16.13;;;14.40;67.50;;;;;;4989979;28;20465;-79
2023/02/09 10:54:35;;;;;;;23.67;16.63;;;14.70;70.50;;;;;;4992331;28;20464;-79
2023/02/09 10:57:20;;;;;;;29.80;16.57;;;15.00;73.40;;;;;;4999327;28;20465;-78
2023/02/09 10:59:52;;;;;;;25.03;17.30;;;15.10;73.20;;;;;;5002822;28;20502;-79
2023/02/09 11:02:49;;;;;;;22.67;15.60;;;14.90;67.40;;;;;;4999298;28;20559;-79
2023/02/09 11:05:33;;;;;;;19.50;15.33;;;15.20;71.00;;;;;;4982894;28;20468;-78
2023/02/09 11:08:11;;;;;;;21.33;16.20;;;15.30;70.80;;;;;;5000863;28;20541;-79
2023/02/09 11:10:44;;;;;;;19.63;15.27;;;14.60;56.80;;;;;;5001656;28;20466;-79
2023/02/09 11:13:21;;;;;;;21.43;15.10;;;14.30;51.50;;;;;;5000254;28;20483;-79
2023/02/09 11:16:06;;;;;;;18.67;14.63;;;14.00;47.20;;;;;;5000912;28;20450;-80
2023/02/09 11:18:35;;;;;;;20.15;17.40;;;14.00;45.80;;;;;;4998450;28;20454;-79
2023/02/09 11:21:10;;;;;;;19.93;14.73;;;13.60;43.60;;;;;;4998336;28;20224;-79
2023/02/09 11:23:51;;;;;;;17.13;14.00;;;13.30;41.40;;;;;;4998377;28;20570;-80
2023/02/09 11:26:37;;;;;;;21.30;16.20;;;13.30;39.00;;;;;;5001890;28;20469;-80
2023/02/09 11:29:13;;;;;;;16.93;14.17;;;13.10;36.30;;;;;;4993344;28;20464;-80
2023/02/09 11:31:54;;;;;;;18.70;14.00;;;13.50;41.40;;;;;;4990331;28;20481;-80
2023/02/09 11:34:41;;;;;;;18.63;13.83;;;13.60;42.60;;;;;;4989914;28;20453;-80
2023/02/09 11:37:24;;;;;;;17.97;14.07;;;15.10;58.00;;;;;;4985413;28;20543;-80
2023/02/09 11:39:59;;;;;;;19.50;16.00;;;16.40;76.00;;;;;;4985429;28;20449;-79
2023/02/09 11:42:44;;;;;;;19.30;14.83;;;15.30;59.30;;;;;;4987053;28;20538;-80
2023/02/09 11:45:18;;;;;;;20.27;15.57;;;13.40;37.50;;;;;;4988591;28;21280;-79
2023/02/09 11:47:57;;;;;;;20.30;15.70;;;11.90;22.30;;;;;;4989373;28;20487;-79
2023/02/09 11:50:30;;;;;;;19.77;14.87;;;11.20;16.40;;;;;;4995582;28;21038;-80
2023/02/09 11:53:05;;;;;;;18.60;14.40;;;10.60;11.10;;;;;;4997356;28;20450;-79
2023/02/09 11:55:37;;;;;;;22.27;14.50;;;10.20;7.90;;;;;;4999309;28;20557;-79
2023/02/09 11:58:26;;;;;;;19.47;14.63;;;9.70;4.00;;;;;;4998544;28;20473;-79
2023/02/09 12:01:00;;;;;;;22.70;15.17;;;9.40;2.40;;;;;;4999687;28;20474;-79
2023/02/09 12:03:55;;;;;;;18.57;15.23;;;9.40;3.90;;;;;;4995227;28;20539;-79
2023/02/09 12:06:24;;;;;;;21.70;13.80;;;9.50;4.80;;;;;;4994374;28;20468;-78
2023/02/09 12:09:08;;;;;;;17.80;14.00;;;9.70;6.30;;;;;;4991634;28;20457;-78
2023/02/09 12:11:59;;;;;;;18.23;13.73;;;9.60;4.90;;;;;;4990223;28;20488;-78
2023/02/09 12:14:42;;;;;;;18.80;14.20;;;9.50;4.00;;;;;;4986961;28;20865;-78
2023/02/09 12:17:16;;;;;;;21.30;14.83;;;9.60;5.20;;;;;;4990475;28;20459;-80
2023/02/09 12:19:53;;;;;;;21.57;14.30;;;9.50;4.40;;;;;;4994870;28;20479;-79
2023/02/09 12:22:48;;;;;;;21.53;15.27;;;9.30;2.70;;;;;;4990237;28;21013;-78
2023/02/09 12:25:31;;;;;;;16.90;12.80;;;9.30;2.30;;;;;;4989810;28;20592;-79
2023/02/09 12:28:36;;;;;;;20.23;13.63;;;9.40;5.30;;;;;;4990764;28;22424;-79
2023/02/09 12:31:16;;;;;;;15.27;13.30;;;9.60;7.20;;;;;;4986763;28;20492;-81
2023/02/09 12:34:12;;;;;;;20.47;14.57;;;9.60;6.60;;;;;;4990199;28;21236;-79
2023/02/09 12:37:09;;;;;;;19.10;14.20;;;9.50;5.70;;;;;;4990089;28;20504;-80
2023/02/09 12:39:37;;;;;;;17.83;12.27;;;9.50;4.90;;;;;;4985666;28;20864;-79
2023/02/09 12:42:27;;;;;;;17.33;13.40;;;9.50;3.90;;;;;;5003557;28;20496;-81
2023/02/09 12:44:58;;;;;;;17.63;12.53;;;9.60;3.30;;;;;;4984394;28;20564;-80
2023/02/09 12:47:57;;;;;;;17.40;12.13;;;9.60;2.70;;;;;;4985458;28;20471;-79
2023/02/09 12:50:44;;;;;;;15.93;12.00;;;9.50;1.30;;;;;;4989928;28;20477;-80
2023/02/09 12:53:46;;;;;;;20.47;12.97;;;9.60;2.80;;;;;;4986598;28;20603;-80
2023/02/09 12:56:32;;;;;;;18.77;13.33;;;9.50;2.20;;;;;;4990547;28;20880;-79
2023/02/09 12:59:19;;;;;;;19.37;13.80;;;9.90;6.40;;;;;;4999328;28;20823;-79
2023/02/09 13:02:14;;;;;;;16.80;12.50;;;10.00;7.00;;;;;;5001334;28;20488;-79